Time;durP1;ratioP1;P1;durP2;ratioP2;P2;SDS_P1;SDS_P2;PMS_P1;PMS_P2;Temp;Humidity;BMP_temperature;BMP_pressure;BME280_temperature;BME280_humidity;BME280_pressure;Samples;Min_cycle;Max_cycle;Signal;HPM_P1;HPM_P2
2020/12/15 00:01:24;;;;;;;132.60;33.90;;;7.30;99.90;;;;;;5065021;28;20392;-54
2020/12/15 00:03:50;;;;;;;132.57;35.80;;;7.30;99.90;;;;;;5065918;28;20782;-51
2020/12/15 00:06:17;;;;;;;130.75;34.65;;;7.30;99.90;;;;;;5071858;28;20382;-51
2020/12/15 00:08:43;;;;;;;130.73;33.83;;;7.40;99.90;;;;;;5068049;28;20401;-51
2020/12/15 00:11:15;;;;;;;130.43;34.22;;;7.40;99.90;;;;;;5064600;28;20870;-53
2020/12/15 00:13:44;;;;;;;126.03;34.05;;;7.40;99.90;;;;;;5064603;28;20384;-54
2020/12/15 00:16:10;;;;;;;135.90;36.53;;;7.40;99.90;;;;;;5067980;28;20410;-51
2020/12/15 00:18:39;;;;;;;132.52;35.10;;;7.40;99.90;;;;;;5063193;28;20385;-53
2020/12/15 00:21:05;;;;;;;130.23;35.05;;;7.40;99.90;;;;;;5064323;28;20403;-54
2020/12/15 00:23:31;;;;;;;131.77;36.45;;;7.40;99.90;;;;;;5064896;28;20395;-52
2020/12/15 00:25:58;;;;;;;133.48;35.88;;;7.40;99.90;;;;;;5064801;28;20397;-52
2020/12/15 00:28:24;;;;;;;123.20;35.17;;;7.40;99.90;;;;;;5067082;28;20889;-51
2020/12/15 00:30:50;;;;;;;139.25;37.70;;;7.50;99.90;;;;;;5069495;28;20409;-50
2020/12/15 00:33:16;;;;;;;133.85;35.83;;;7.50;99.90;;;;;;5064200;28;20389;-51
2020/12/15 00:35:42;;;;;;;135.37;37.00;;;7.50;99.90;;;;;;5069645;28;20409;-52
2020/12/15 00:38:08;;;;;;;121.07;34.63;;;7.50;99.90;;;;;;5070736;28;20386;-52
2020/12/15 00:40:35;;;;;;;131.73;36.47;;;7.50;99.90;;;;;;5068813;28;20906;-52
2020/12/15 00:43:01;;;;;;;125.53;36.65;;;7.50;99.90;;;;;;5061603;28;20876;-50
2020/12/15 00:45:27;;;;;;;123.38;34.60;;;7.50;99.90;;;;;;5063077;28;20868;-52
2020/12/15 00:47:53;;;;;;;128.25;37.13;;;7.60;99.90;;;;;;5068030;28;20701;-54
2020/12/15 00:50:19;;;;;;;126.18;36.30;;;7.60;99.90;;;;;;5061890;28;20820;-52
2020/12/15 00:52:45;;;;;;;125.90;36.65;;;7.60;99.90;;;;;;5061264;28;20706;-54
2020/12/15 00:55:11;;;;;;;128.20;36.83;;;7.60;99.90;;;;;;5060840;28;20395;-55
2020/12/15 00:57:37;;;;;;;118.78;36.33;;;7.70;99.90;;;;;;5064523;28;20391;-54
2020/12/15 01:00:13;;;;;;;128.13;37.35;;;7.70;99.90;;;;;;5063324;28;20394;-53
2020/12/15 01:02:40;;;;;;;128.95;37.33;;;7.70;99.90;;;;;;5056479;28;20394;-51
2020/12/15 01:05:06;;;;;;;135.60;38.45;;;7.70;99.90;;;;;;5071577;28;20394;-54
2020/12/15 01:07:33;;;;;;;122.35;36.28;;;7.70;99.90;;;;;;5065163;28;20382;-55
2020/12/15 01:09:59;;;;;;;121.60;37.47;;;7.80;99.90;;;;;;5067152;28;20884;-50
2020/12/15 01:12:25;;;;;;;125.78;38.00;;;7.70;99.90;;;;;;5068366;28;20440;-54
2020/12/15 01:14:51;;;;;;;122.75;35.92;;;7.80;99.90;;;;;;5064410;28;20890;-52
2020/12/15 01:17:17;;;;;;;123.85;37.47;;;7.70;99.90;;;;;;5057699;28;20899;-54
2020/12/15 01:19:43;;;;;;;121.55;36.53;;;7.80;99.90;;;;;;5066264;28;20375;-52
2020/12/15 01:22:11;;;;;;;135.00;37.40;;;7.80;99.90;;;;;;5061237;28;20383;-53
2020/12/15 01:24:37;;;;;;;127.55;38.95;;;7.70;99.90;;;;;;5062405;28;20716;-53
2020/12/15 01:27:03;;;;;;;139.27;39.30;;;7.70;99.90;;;;;;5064095;28;20394;-52
2020/12/15 01:29:29;;;;;;;139.67;39.53;;;7.70;99.90;;;;;;5066188;28;20409;-53
2020/12/15 01:31:55;;;;;;;133.83;39.23;;;7.70;99.90;;;;;;5059792;28;20407;-51
2020/12/15 01:34:21;;;;;;;139.00;39.85;;;7.70;99.90;;;;;;5064995;28;20394;-52
2020/12/15 01:36:47;;;;;;;133.63;38.70;;;7.70;99.90;;;;;;5064989;28;20417;-54
2020/12/15 01:39:13;;;;;;;139.90;38.88;;;7.70;99.90;;;;;;5066984;28;20390;-55
2020/12/15 01:41:40;;;;;;;145.50;39.42;;;7.70;99.90;;;;;;5063960;28;20397;-51
2020/12/15 01:44:06;;;;;;;132.05;37.72;;;7.80;99.90;;;;;;5063511;28;20387;-54
2020/12/15 01:46:32;;;;;;;130.65;37.60;;;7.80;99.90;;;;;;5061254;28;20414;-55
2020/12/15 01:48:58;;;;;;;129.15;38.17;;;7.80;99.90;;;;;;5063699;28;20387;-52
2020/12/15 01:51:28;;;;;;;135.38;38.60;;;7.70;99.90;;;;;;5063691;28;20897;-54
2020/12/15 01:54:00;;;;;;;133.02;39.65;;;7.70;99.90;;;;;;5065418;28;20390;-53
2020/12/15 01:56:26;;;;;;;138.82;39.85;;;7.80;99.90;;;;;;5059494;28;20417;-54
2020/12/15 01:58:57;;;;;;;126.32;38.42;;;7.70;99.90;;;;;;5064891;28;20384;-52
2020/12/15 02:01:24;;;;;;;127.18;37.88;;;7.80;99.90;;;;;;5065959;28;20392;-52
2020/12/15 02:03:50;;;;;;;137.05;39.60;;;7.80;99.90;;;;;;5065405;28;20387;-51
2020/12/15 02:06:17;;;;;;;124.97;39.00;;;7.70;99.90;;;;;;5063668;28;20391;-54
2020/12/15 02:08:44;;;;;;;126.13;38.08;;;7.70;99.90;;;;;;5043990;28;20406;-51
2020/12/15 02:11:10;;;;;;;131.02;37.75;;;7.70;99.90;;;;;;5059602;28;20398;-51
2020/12/15 02:13:37;;;;;;;145.73;40.15;;;7.70;99.90;;;;;;5061597;28;20404;-51
2020/12/15 02:16:10;;;;;;;137.87;40.17;;;7.70;99.90;;;;;;5064951;28;20403;-51
2020/12/15 02:18:40;;;;;;;147.33;40.63;;;7.70;99.90;;;;;;5063520;28;20384;-51
2020/12/15 02:21:09;;;;;;;140.15;39.78;;;7.70;99.90;;;;;;5060604;28;20848;-51
2020/12/15 02:23:36;;;;;;;145.63;40.60;;;7.70;99.90;;;;;;5065162;28;20375;-52
2020/12/15 02:26:02;;;;;;;145.97;40.47;;;7.70;99.90;;;;;;5063298;28;20400;-53
2020/12/15 02:28:29;;;;;;;144.60;40.63;;;7.70;99.90;;;;;;5065662;28;20897;-51
2020/12/15 02:30:55;;;;;;;148.73;40.40;;;7.70;99.90;;;;;;5064673;28;20390;-51
2020/12/15 02:33:21;;;;;;;157.80;40.55;;;7.60;99.90;;;;;;5068690;28;20461;-52
2020/12/15 02:35:47;;;;;;;144.48;40.40;;;7.70;99.90;;;;;;5058539;28;20384;-52
2020/12/15 02:38:13;;;;;;;165.23;41.83;;;7.70;99.90;;;;;;5061426;28;20410;-53
2020/12/15 02:40:40;;;;;;;158.00;41.53;;;7.70;99.90;;;;;;5060665;28;20379;-51
2020/12/15 02:43:06;;;;;;;154.20;41.10;;;7.60;99.90;;;;;;5055759;28;20386;-51
2020/12/15 02:45:32;;;;;;;162.77;41.97;;;7.70;99.90;;;;;;5054054;28;20415;-51
2020/12/15 02:47:58;;;;;;;158.68;41.78;;;7.70;99.90;;;;;;5056177;28;20742;-54
2020/12/15 02:50:24;;;;;;;162.52;42.83;;;7.70;99.90;;;;;;5063999;28;20407;-51
2020/12/15 02:52:51;;;;;;;160.88;42.35;;;7.70;99.90;;;;;;5063732;28;20742;-55
2020/12/15 02:55:17;;;;;;;155.77;42.50;;;7.70;99.90;;;;;;5061060;28;20391;-52
2020/12/15 02:57:43;;;;;;;151.77;41.17;;;7.70;99.90;;;;;;5061358;28;20404;-51
2020/12/15 03:00:09;;;;;;;135.85;40.42;;;7.70;99.90;;;;;;5072650;28;20384;-54
2020/12/15 03:02:36;;;;;;;142.05;40.67;;;7.80;99.90;;;;;;5062587;28;20471;-52
2020/12/15 03:05:03;;;;;;;147.63;42.50;;;7.70;99.90;;;;;;5065669;28;20877;-52
2020/12/15 03:07:29;;;;;;;143.32;40.88;;;7.70;99.90;;;;;;5064011;28;20398;-51
2020/12/15 03:09:55;;;;;;;128.32;39.28;;;7.70;99.90;;;;;;5065405;28;20410;-51
2020/12/15 03:12:22;;;;;;;135.00;39.53;;;7.80;99.90;;;;;;5071136;28;20882;-52
2020/12/15 03:14:48;;;;;;;138.32;40.50;;;7.80;99.90;;;;;;5063827;28;20835;-51
2020/12/15 03:17:18;;;;;;;139.13;38.83;;;7.80;99.90;;;;;;5063159;28;20411;-51
2020/12/15 03:19:44;;;;;;;137.80;38.50;;;7.80;99.90;;;;;;5061952;28;20412;-51
2020/12/15 03:22:16;;;;;;;137.38;38.75;;;7.80;99.90;;;;;;5065097;28;20901;-51
2020/12/15 03:24:42;;;;;;;143.02;37.97;;;7.80;99.90;;;;;;5065787;28;20391;-53
2020/12/15 03:27:08;;;;;;;127.93;37.03;;;7.70;99.90;;;;;;5064249;28;20414;-52
2020/12/15 03:29:35;;;;;;;156.18;37.40;;;7.70;99.90;;;;;;5064818;28;20386;-51
2020/12/15 03:32:01;;;;;;;153.45;39.00;;;7.70;99.90;;;;;;5064869;28;20900;-51
2020/12/15 03:34:27;;;;;;;159.48;38.08;;;7.70;99.90;;;;;;5068054;28;20394;-55
2020/12/15 03:36:53;;;;;;;143.30;36.15;;;7.70;99.90;;;;;;5064321;28;20520;-54
2020/12/15 03:39:20;;;;;;;155.43;37.50;;;7.70;99.90;;;;;;5069832;28;20408;-54
2020/12/15 03:41:46;;;;;;;153.38;36.60;;;7.60;99.90;;;;;;5065226;28;20405;-55
2020/12/15 03:44:12;;;;;;;153.90;37.17;;;7.60;99.90;;;;;;5065047;28;20802;-51
2020/12/15 03:46:38;;;;;;;141.65;35.00;;;7.60;99.90;;;;;;5068448;28;20390;-53
2020/12/15 03:49:05;;;;;;;152.60;36.78;;;7.60;99.90;;;;;;5061992;28;20388;-55
2020/12/15 03:51:31;;;;;;;157.23;36.95;;;7.60;99.90;;;;;;5062950;28;20382;-54
2020/12/15 03:53:57;;;;;;;158.70;36.08;;;7.60;99.90;;;;;;5063587;28;20397;-51
2020/12/15 03:56:23;;;;;;;144.63;35.50;;;7.60;99.90;;;;;;5062264;28;20423;-55
2020/12/15 03:58:49;;;;;;;153.32;35.03;;;7.60;99.90;;;;;;5061056;28;20887;-52
2020/12/15 04:01:15;;;;;;;143.13;35.08;;;7.60;99.90;;;;;;5064206;28;20505;-50
2020/12/15 04:03:42;;;;;;;143.20;34.03;;;7.60;99.90;;;;;;5072088;28;20409;-54
2020/12/15 04:06:08;;;;;;;129.98;33.05;;;7.60;99.90;;;;;;5069297;28;20382;-51
2020/12/15 04:08:34;;;;;;;139.20;33.45;;;7.60;99.90;;;;;;5063693;28;20378;-54
2020/12/15 04:11:00;;;;;;;138.77;32.40;;;7.50;99.90;;;;;;5062472;28;20388;-50
2020/12/15 04:13:26;;;;;;;145.23;33.10;;;7.60;99.90;;;;;;5068130;28;20774;-53
2020/12/15 04:15:53;;;;;;;151.93;32.40;;;7.50;99.90;;;;;;5058680;28;20758;-52
2020/12/15 04:18:19;;;;;;;141.38;31.95;;;7.50;99.90;;;;;;5070162;28;20406;-54
2020/12/15 04:20:45;;;;;;;147.70;32.03;;;7.50;99.90;;;;;;5062368;28;20383;-55
2020/12/15 04:23:11;;;;;;;142.63;31.85;;;7.50;99.90;;;;;;5065599;28;20382;-51
2020/12/15 04:25:50;;;;;;;149.57;32.05;;;7.50;99.90;;;;;;5066537;28;20392;-51
2020/12/15 04:28:16;;;;;;;145.65;31.15;;;7.50;99.90;;;;;;5067889;28;20723;-51
2020/12/15 04:30:44;;;;;;;166.55;32.63;;;7.50;99.90;;;;;;5068028;28;20396;-52
2020/12/15 04:33:11;;;;;;;155.48;31.58;;;7.50;99.90;;;;;;5063318;28;20393;-51
2020/12/15 04:35:37;;;;;;;142.30;29.80;;;7.40;99.90;;;;;;5063628;28;20405;-50
2020/12/15 04:38:04;;;;;;;168.82;32.20;;;7.50;99.90;;;;;;5062987;28;20415;-52
2020/12/15 04:40:34;;;;;;;159.45;32.75;;;7.40;99.90;;;;;;5064653;28;20393;-51
2020/12/15 04:43:01;;;;;;;159.23;32.00;;;7.40;99.90;;;;;;5064323;28;20883;-54
2020/12/15 04:45:28;;;;;;;161.75;32.85;;;7.40;99.90;;;;;;5062715;28;20392;-51
2020/12/15 04:48:07;;;;;;;176.75;34.35;;;7.40;99.90;;;;;;5062771;28;20391;-51
2020/12/15 04:50:35;;;;;;;147.70;32.83;;;7.40;99.90;;;;;;5061307;28;20379;-53
2020/12/15 04:53:11;;;;;;;158.27;34.42;;;7.50;99.90;;;;;;5062624;28;20373;-53
2020/12/15 04:55:38;;;;;;;155.00;34.80;;;7.40;99.90;;;;;;5062812;28;20376;-51
2020/12/15 04:58:04;;;;;;;158.25;33.70;;;7.50;99.90;;;;;;5056751;28;20930;-53
2020/12/15 05:00:32;;;;;;;153.53;35.30;;;7.50;99.90;;;;;;5061339;28;20743;-51
2020/12/15 05:02:58;;;;;;;158.63;34.55;;;7.50;99.90;;;;;;5066103;28;20397;-52
2020/12/15 05:05:25;;;;;;;152.82;35.17;;;7.50;99.90;;;;;;5063992;28;20382;-52
2020/12/15 05:07:51;;;;;;;152.32;34.83;;;7.50;99.90;;;;;;5066363;28;20382;-52
2020/12/15 05:10:20;;;;;;;135.80;34.00;;;7.50;99.90;;;;;;5060001;28;20409;-51
2020/12/15 05:12:47;;;;;;;147.65;34.65;;;7.50;99.90;;;;;;5061243;28;20394;-55
2020/12/15 05:15:15;;;;;;;138.02;35.78;;;7.50;99.90;;;;;;5064024;28;20382;-52
2020/12/15 05:17:41;;;;;;;137.27;35.67;;;7.50;99.90;;;;;;5057802;28;20757;-51
2020/12/15 05:20:14;;;;;;;129.48;34.38;;;7.50;99.90;;;;;;5063526;28;20391;-51
2020/12/15 05:22:45;;;;;;;120.22;32.85;;;7.50;99.90;;;;;;5062308;28;20781;-53
2020/12/15 05:25:32;;;;;;;119.83;33.60;;;7.60;99.90;;;;;;5060979;28;20382;-53
2020/12/15 05:27:59;;;;;;;114.53;33.28;;;7.60;99.90;;;;;;5062010;28;20379;-53
2020/12/15 05:30:26;;;;;;;122.57;33.45;;;7.60;99.90;;;;;;5064589;28;20390;-53
2020/12/15 05:32:53;;;;;;;122.13;33.57;;;7.60;99.90;;;;;;5064132;28;20387;-51
2020/12/15 05:35:30;;;;;;;127.43;35.00;;;7.60;99.90;;;;;;5069241;28;20394;-52
2020/12/15 05:37:57;;;;;;;121.43;34.50;;;7.60;99.90;;;;;;5062446;28;20421;-53
2020/12/15 05:40:24;;;;;;;117.43;33.45;;;7.60;99.90;;;;;;5061190;28;20384;-52
2020/12/15 05:42:57;;;;;;;115.28;33.05;;;7.60;99.90;;;;;;5065702;28;20371;-52
2020/12/15 05:45:24;;;;;;;115.63;33.17;;;7.60;99.90;;;;;;5063231;28;20374;-52
2020/12/15 05:47:58;;;;;;;114.32;33.40;;;7.50;99.90;;;;;;5059411;28;20401;-55
2020/12/15 05:50:27;;;;;;;119.40;33.75;;;7.60;99.90;;;;;;5044658;28;20392;-53
2020/12/15 05:52:59;;;;;;;110.60;31.38;;;7.60;99.90;;;;;;5061267;28;20444;-52
2020/12/15 05:55:25;;;;;;;109.90;32.53;;;7.60;99.90;;;;;;5057536;28;20729;-55
2020/12/15 05:57:52;;;;;;;103.85;31.92;;;7.60;99.90;;;;;;5062374;28;20398;-52
2020/12/15 06:00:18;;;;;;;116.45;32.67;;;7.60;99.90;;;;;;5060974;28;20393;-52
2020/12/15 06:02:55;;;;;;;119.45;33.58;;;7.60;99.90;;;;;;5061176;28;20399;-52
2020/12/15 06:05:21;;;;;;;110.95;33.78;;;7.60;99.90;;;;;;5070675;28;20374;-51
2020/12/15 06:07:47;;;;;;;102.35;32.85;;;7.60;99.90;;;;;;5056583;28;20731;-55
2020/12/15 06:10:13;;;;;;;113.85;34.55;;;7.60;99.90;;;;;;5061370;28;20858;-52
2020/12/15 06:12:40;;;;;;;109.90;33.53;;;7.60;99.90;;;;;;5070242;28;20388;-52
2020/12/15 06:15:06;;;;;;;98.13;31.02;;;7.60;99.90;;;;;;5061903;28;20371;-54
2020/12/15 06:17:32;;;;;;;97.33;32.73;;;7.60;99.90;;;;;;5062361;28;20915;-53
2020/12/15 06:19:59;;;;;;;101.90;33.28;;;7.60;99.90;;;;;;5063092;28;20399;-52
2020/12/15 06:22:25;;;;;;;108.00;34.72;;;7.70;99.90;;;;;;5057997;28;20390;-53
2020/12/15 06:24:58;;;;;;;104.22;34.00;;;7.70;99.90;;;;;;5061182;28;20403;-55
2020/12/15 06:27:32;;;;;;;96.00;33.13;;;7.60;99.90;;;;;;5056332;28;20382;-55
2020/12/15 06:29:58;;;;;;;100.00;34.13;;;7.70;99.90;;;;;;5064503;28;20896;-53
2020/12/15 06:32:27;;;;;;;96.80;34.10;;;7.70;99.90;;;;;;5058619;28;20372;-53
2020/12/15 06:34:54;;;;;;;94.85;33.58;;;7.70;99.90;;;;;;5054031;28;20397;-54
2020/12/15 06:37:22;;;;;;;93.80;33.55;;;7.70;99.90;;;;;;5063313;28;20409;-51
2020/12/15 06:40:02;;;;;;;93.05;33.95;;;7.70;99.90;;;;;;5065123;28;20411;-53
2020/12/15 06:42:31;;;;;;;91.10;33.45;;;7.70;99.90;;;;;;5060251;28;20392;-55
2020/12/15 06:45:06;;;;;;;90.88;34.03;;;7.80;99.90;;;;;;5061368;28;20380;-53
2020/12/15 06:47:33;;;;;;;89.78;33.53;;;7.70;99.90;;;;;;5061700;28;20392;-54
2020/12/15 06:50:15;;;;;;;77.07;32.10;;;7.70;99.90;;;;;;5065762;28;20408;-54
2020/12/15 06:52:41;;;;;;;85.40;33.33;;;7.80;99.90;;;;;;5060038;28;20755;-52
2020/12/15 06:55:07;;;;;;;87.05;32.70;;;7.80;99.90;;;;;;5056990;28;20384;-53
2020/12/15 06:57:37;;;;;;;92.40;33.72;;;7.80;99.90;;;;;;5062961;28;20414;-55
2020/12/15 07:00:08;;;;;;;92.82;33.47;;;7.70;99.90;;;;;;5062885;28;20662;-55
2020/12/15 07:02:35;;;;;;;90.80;33.78;;;7.80;99.90;;;;;;5056688;28;20945;-54
2020/12/15 07:05:34;;;;;;;95.28;35.33;;;7.80;99.90;;;;;;5066108;28;20393;-52
2020/12/15 07:08:05;;;;;;;94.10;34.93;;;7.80;99.90;;;;;;5061353;28;20407;-54
2020/12/15 07:10:32;;;;;;;84.07;33.07;;;7.80;99.90;;;;;;5063250;28;20382;-53
2020/12/15 07:13:00;;;;;;;80.90;33.45;;;7.80;99.90;;;;;;5061166;28;20478;-54
2020/12/15 07:15:28;;;;;;;78.47;32.35;;;7.80;99.90;;;;;;5059805;28;20394;-52
2020/12/15 07:17:55;;;;;;;75.57;31.17;;;7.90;99.90;;;;;;5058092;28;20411;-52
2020/12/15 07:20:21;;;;;;;81.32;33.28;;;7.90;99.90;;;;;;5063379;28;20389;-55
2020/12/15 07:22:48;;;;;;;73.88;32.33;;;7.90;99.90;;;;;;5061712;28;20402;-51
2020/12/15 07:25:14;;;;;;;77.05;31.77;;;7.90;99.90;;;;;;5066607;28;20401;-51
2020/12/15 07:27:41;;;;;;;77.32;31.95;;;7.90;99.90;;;;;;5060876;28;20389;-51
2020/12/15 07:30:11;;;;;;;77.47;32.28;;;7.90;99.90;;;;;;5060739;28;20380;-52
2020/12/15 07:32:38;;;;;;;77.78;33.20;;;7.90;99.90;;;;;;5062638;28;20412;-52
2020/12/15 07:35:18;;;;;;;81.15;32.70;;;7.90;99.90;;;;;;5061279;28;20896;-52
2020/12/15 07:37:44;;;;;;;77.95;32.95;;;7.80;99.90;;;;;;5062477;28;20762;-52
2020/12/15 07:40:12;;;;;;;78.90;33.35;;;7.80;99.90;;;;;;5063154;28;20402;-53
2020/12/15 07:42:39;;;;;;;74.53;31.05;;;7.90;99.90;;;;;;5059012;28;20383;-52
2020/12/15 07:45:07;;;;;;;78.45;32.15;;;7.90;99.90;;;;;;5060572;28;20386;-55
2020/12/15 07:47:40;;;;;;;75.72;31.85;;;7.90;99.90;;;;;;5059433;28;20472;-54
2020/12/15 07:50:07;;;;;;;74.43;31.00;;;7.90;99.90;;;;;;5061690;28;20514;-52
2020/12/15 07:52:40;;;;;;;70.10;30.55;;;7.90;99.90;;;;;;5060479;28;20438;-53
2020/12/15 07:55:08;;;;;;;80.50;32.47;;;7.90;99.90;;;;;;5060054;28;20399;-54
2020/12/15 07:57:36;;;;;;;77.00;32.03;;;7.90;99.90;;;;;;5065359;28;20407;-52
2020/12/15 08:00:24;;;;;;;74.63;31.92;;;7.90;99.90;;;;;;5067177;28;20381;-52
2020/12/15 08:02:59;;;;;;;73.70;31.77;;;7.90;99.90;;;;;;5062749;28;20724;-53
2020/12/15 08:05:25;;;;;;;74.60;31.27;;;7.90;99.90;;;;;;5069153;28;20398;-52
2020/12/15 08:08:02;;;;;;;73.65;30.58;;;7.90;99.90;;;;;;5068973;28;20397;-51
2020/12/15 08:10:29;;;;;;;73.35;31.13;;;7.90;99.90;;;;;;5065642;28;20713;-54
2020/12/15 08:12:57;;;;;;;76.72;31.23;;;7.90;99.90;;;;;;5060990;28;20383;-52
2020/12/15 08:15:23;;;;;;;66.32;28.08;;;7.90;99.90;;;;;;5061148;28;20395;-51
2020/12/15 08:17:50;;;;;;;58.13;27.00;;;7.90;99.90;;;;;;5066385;28;20405;-54
2020/12/15 08:20:17;;;;;;;56.97;25.70;;;8.00;99.90;;;;;;5066267;28;20392;-52
2020/12/15 08:22:45;;;;;;;58.22;25.98;;;7.90;99.90;;;;;;5059704;28;20390;-51
2020/12/15 08:25:15;;;;;;;54.95;25.88;;;8.00;99.90;;;;;;5061822;28;20403;-54
2020/12/15 08:27:41;;;;;;;47.20;23.48;;;8.00;99.90;;;;;;5064442;28;20490;-54
2020/12/15 08:30:15;;;;;;;49.80;23.95;;;8.00;99.90;;;;;;5060717;28;20760;-52
2020/12/15 08:32:44;;;;;;;55.47;24.95;;;8.00;99.90;;;;;;5062214;28;20469;-52
2020/12/15 08:35:11;;;;;;;58.13;24.27;;;8.00;99.90;;;;;;5064612;28;20378;-51
2020/12/15 08:37:37;;;;;;;48.43;23.73;;;8.00;99.90;;;;;;5065974;28;20402;-52
2020/12/15 08:40:06;;;;;;;47.85;24.30;;;8.00;99.90;;;;;;5065237;28;20911;-52
2020/12/15 08:42:33;;;;;;;54.20;25.15;;;8.00;99.90;;;;;;5065202;28;20403;-52
2020/12/15 08:45:10;;;;;;;52.53;23.48;;;8.00;99.90;;;;;;5062827;28;20382;-54
2020/12/15 08:47:45;;;;;;;51.33;23.65;;;8.00;99.90;;;;;;5058912;28;20395;-53
2020/12/15 08:50:12;;;;;;;51.35;23.20;;;8.00;99.90;;;;;;5066545;28;20405;-52
2020/12/15 08:52:39;;;;;;;51.25;24.30;;;8.00;99.90;;;;;;5061867;28;20395;-56
2020/12/15 08:55:05;;;;;;;46.42;22.45;;;8.00;99.90;;;;;;5060090;28;20906;-54
2020/12/15 08:57:31;;;;;;;44.72;22.23;;;8.10;99.90;;;;;;5065307;28;20411;-54
2020/12/15 09:00:17;;;;;;;45.10;22.23;;;8.00;99.90;;;;;;5065057;28;20389;-52
2020/12/15 09:02:43;;;;;;;47.03;22.17;;;8.00;99.90;;;;;;5066834;28;20397;-52
2020/12/15 09:05:11;;;;;;;45.40;21.08;;;8.10;99.90;;;;;;5066716;28;20386;-53
2020/12/15 09:07:37;;;;;;;42.05;20.48;;;8.10;99.90;;;;;;5068520;28;20394;-55
2020/12/15 09:10:16;;;;;;;40.83;20.10;;;8.10;99.90;;;;;;5062508;28;20401;-52
2020/12/15 09:12:46;;;;;;;42.40;22.20;;;8.20;99.90;;;;;;5064869;28;20428;-55
2020/12/15 09:15:13;;;;;;;39.15;20.25;;;8.10;99.90;;;;;;5061957;28;20386;-55
2020/12/15 09:17:39;;;;;;;37.20;19.55;;;8.20;99.90;;;;;;5061884;28;20387;-53
2020/12/15 09:20:06;;;;;;;34.75;18.48;;;8.20;99.90;;;;;;5067967;28;20398;-53
2020/12/15 09:22:38;;;;;;;37.55;18.75;;;8.10;99.90;;;;;;5057169;28;20382;-51
2020/12/15 09:25:11;;;;;;;37.43;18.77;;;8.20;99.90;;;;;;5062177;28;20396;-52
2020/12/15 09:27:37;;;;;;;34.83;17.98;;;8.20;99.90;;;;;;5068063;28;20408;-55
2020/12/15 09:30:04;;;;;;;35.72;18.85;;;8.20;99.90;;;;;;5061170;28;20395;-55
2020/12/15 09:32:36;;;;;;;35.70;17.92;;;8.20;99.90;;;;;;5062389;28;20393;-52
2020/12/15 09:35:02;;;;;;;33.45;17.52;;;8.20;99.90;;;;;;5067561;28;20398;-52
2020/12/15 09:37:28;;;;;;;29.05;15.98;;;8.20;99.90;;;;;;5064368;28;20386;-55
2020/12/15 09:39:54;;;;;;;35.77;18.77;;;8.30;99.90;;;;;;5061909;28;20406;-55
2020/12/15 09:42:23;;;;;;;33.25;17.80;;;8.20;99.90;;;;;;5066096;28;20798;-53
2020/12/15 09:44:50;;;;;;;38.13;18.52;;;8.20;99.90;;;;;;5069294;28;20394;-53
2020/12/15 09:47:16;;;;;;;34.40;18.13;;;8.20;99.90;;;;;;5061976;28;20384;-53
2020/12/15 09:49:42;;;;;;;38.97;19.00;;;8.20;99.90;;;;;;5060951;28;20388;-52
2020/12/15 09:52:08;;;;;;;35.38;18.02;;;8.20;99.90;;;;;;5060875;28;20392;-51
2020/12/15 09:54:34;;;;;;;38.97;18.33;;;8.10;99.90;;;;;;5065662;28;20390;-52
2020/12/15 09:57:00;;;;;;;34.20;18.63;;;8.20;99.90;;;;;;5062210;28;20398;-54
2020/12/15 09:59:26;;;;;;;38.47;19.77;;;8.20;99.90;;;;;;5064758;28;20407;-55
2020/12/15 10:01:53;;;;;;;40.10;20.00;;;8.20;99.90;;;;;;5065027;28;20390;-54
2020/12/15 10:04:22;;;;;;;35.70;17.85;;;8.10;99.90;;;;;;5065674;28;20390;-55
2020/12/15 10:06:48;;;;;;;36.47;18.08;;;8.20;99.90;;;;;;5066017;28;20394;-53
2020/12/15 10:09:15;;;;;;;39.78;19.35;;;8.20;99.90;;;;;;5060181;28;20409;-55
2020/12/15 10:11:42;;;;;;;37.35;19.23;;;8.10;99.90;;;;;;5064904;28;20480;-55
2020/12/15 10:14:09;;;;;;;35.42;18.85;;;8.10;99.90;;;;;;5064959;28;20398;-53
2020/12/15 10:16:35;;;;;;;43.38;19.92;;;8.10;99.90;;;;;;5061333;28;20812;-54
2020/12/15 10:19:02;;;;;;;37.15;19.08;;;8.00;99.90;;;;;;5062389;28;20401;-53
2020/12/15 10:21:28;;;;;;;40.40;19.15;;;8.00;99.90;;;;;;5066682;28;20390;-51
2020/12/15 10:23:54;;;;;;;42.38;19.83;;;8.00;99.90;;;;;;5061228;28;20988;-52
2020/12/15 10:26:21;;;;;;;40.80;19.77;;;8.00;99.90;;;;;;5061535;28;20846;-52
2020/12/15 10:28:47;;;;;;;44.03;20.73;;;7.90;99.90;;;;;;5063617;28;20407;-54
2020/12/15 10:31:17;;;;;;;41.17;19.65;;;7.90;99.90;;;;;;5060650;28;20394;-53
2020/12/15 10:33:43;;;;;;;41.38;19.70;;;8.00;99.90;;;;;;5065133;28;20388;-54
2020/12/15 10:36:11;;;;;;;44.78;21.02;;;7.90;99.90;;;;;;5066977;28;20382;-54
2020/12/15 10:38:37;;;;;;;50.45;24.33;;;7.90;99.90;;;;;;5058613;28;20421;-51
2020/12/15 10:41:03;;;;;;;44.30;22.30;;;7.90;99.90;;;;;;5055920;28;20706;-52
2020/12/15 10:43:29;;;;;;;43.95;22.63;;;7.90;99.90;;;;;;5063693;28;20682;-53
2020/12/15 10:45:55;;;;;;;44.87;21.03;;;7.90;99.90;;;;;;5061050;28;20719;-52
2020/12/15 10:48:21;;;;;;;47.30;20.70;;;8.00;99.90;;;;;;5061753;28;20890;-52
2020/12/15 10:50:48;;;;;;;41.72;20.77;;;8.00;99.90;;;;;;5057136;28;20383;-54
2020/12/15 10:53:14;;;;;;;42.58;20.25;;;8.00;99.90;;;;;;5063285;28;20898;-52
2020/12/15 10:55:40;;;;;;;41.17;19.23;;;7.90;99.90;;;;;;5064090;28;20897;-52
2020/12/15 10:58:07;;;;;;;41.07;19.27;;;7.90;99.90;;;;;;5062944;28;20390;-51
2020/12/15 11:00:33;;;;;;;35.55;17.25;;;8.00;99.90;;;;;;5061196;28;20386;-53
2020/12/15 11:02:59;;;;;;;34.87;16.27;;;8.00;99.90;;;;;;5062827;28;20854;-56
2020/12/15 11:05:25;;;;;;;33.50;15.43;;;8.00;99.90;;;;;;5067033;28;20393;-53
2020/12/15 11:07:51;;;;;;;30.58;15.35;;;8.00;99.90;;;;;;5060659;28;20396;-54
2020/12/15 11:10:18;;;;;;;32.72;15.63;;;8.00;99.90;;;;;;5061515;28;20391;-50
2020/12/15 11:12:44;;;;;;;32.40;14.98;;;7.90;99.90;;;;;;5063093;28;20409;-54
2020/12/15 11:15:10;;;;;;;27.52;15.07;;;7.90;99.90;;;;;;5058432;28;20877;-51
2020/12/15 11:17:36;;;;;;;31.27;15.65;;;7.90;99.90;;;;;;5062766;28;20902;-53
2020/12/15 11:20:02;;;;;;;33.85;16.58;;;7.90;99.90;;;;;;5058663;28;20888;-53
2020/12/15 11:22:29;;;;;;;34.72;17.50;;;7.90;99.90;;;;;;5064866;28;20389;-51
2020/12/15 11:24:56;;;;;;;33.40;17.02;;;7.90;99.90;;;;;;5065999;28;20385;-55
2020/12/15 11:27:22;;;;;;;32.73;15.93;;;7.90;99.90;;;;;;5060131;28;20383;-55
2020/12/15 11:29:48;;;;;;;29.40;16.30;;;7.80;99.90;;;;;;5062762;28;20394;-51
2020/12/15 11:32:14;;;;;;;37.47;17.58;;;7.80;99.90;;;;;;5067669;28;20379;-55
2020/12/15 11:34:40;;;;;;;32.57;16.17;;;7.80;99.90;;;;;;5068850;28;20388;-54
2020/12/15 11:37:09;;;;;;;29.25;14.88;;;7.80;99.90;;;;;;5061822;28;20384;-54
2020/12/15 11:39:40;;;;;;;32.67;15.05;;;7.80;99.90;;;;;;5051296;28;20901;-53
2020/12/15 11:42:10;;;;;;;28.15;14.70;;;7.80;99.90;;;;;;5068160;28;20446;-55
2020/12/15 11:44:37;;;;;;;26.10;13.50;;;7.80;99.90;;;;;;5069180;28;20870;-53
2020/12/15 11:47:03;;;;;;;26.85;12.73;;;7.80;99.90;;;;;;5064758;28;20386;-52
2020/12/15 11:49:29;;;;;;;27.85;13.43;;;7.80;99.90;;;;;;5064786;28;21151;-52
2020/12/15 11:51:55;;;;;;;26.23;12.88;;;7.70;99.90;;;;;;5068017;28;20393;-51
2020/12/15 11:54:22;;;;;;;23.40;12.02;;;7.70;99.90;;;;;;5066763;28;20397;-54
2020/12/15 11:56:51;;;;;;;20.45;11.60;;;7.70;99.90;;;;;;5062404;28;20916;-51
2020/12/15 11:59:18;;;;;;;23.20;11.57;;;7.70;99.90;;;;;;5067258;28;20431;-55
2020/12/15 12:01:44;;;;;;;23.13;11.63;;;7.70;99.90;;;;;;5057936;28;20874;-55
2020/12/15 12:04:10;;;;;;;23.27;11.48;;;7.60;99.90;;;;;;5066870;28;20434;-53
2020/12/15 12:06:37;;;;;;;21.43;10.80;;;7.60;99.90;;;;;;5062426;28;20477;-53
2020/12/15 12:09:03;;;;;;;154.02;61.85;;;7.60;99.90;;;;;;5069921;28;20408;-52
2020/12/15 12:11:30;;;;;;;17.48;9.07;;;7.60;99.90;;;;;;5068742;28;20386;-55
2020/12/15 12:13:56;;;;;;;17.95;9.23;;;7.60;99.90;;;;;;5064527;28;20401;-54
2020/12/15 12:16:22;;;;;;;16.52;8.75;;;7.60;99.90;;;;;;5068037;28;20399;-55
2020/12/15 12:18:48;;;;;;;15.77;7.80;;;7.50;99.90;;;;;;5070239;28;20414;-53
2020/12/15 12:21:14;;;;;;;15.30;7.47;;;7.50;99.90;;;;;;5067768;28;20393;-53
2020/12/15 12:23:41;;;;;;;13.10;7.38;;;7.50;99.90;;;;;;5065411;28;20403;-52
2020/12/15 12:26:07;;;;;;;14.73;7.88;;;7.50;99.90;;;;;;5055233;28;20417;-55
2020/12/15 12:28:33;;;;;;;13.75;7.85;;;7.50;99.90;;;;;;5058665;28;20388;-53
2020/12/15 12:31:00;;;;;;;14.52;7.30;;;7.50;99.90;;;;;;5065941;28;20860;-54
2020/12/15 12:33:26;;;;;;;13.02;7.30;;;7.50;99.90;;;;;;5063485;28;20398;-55
2020/12/15 12:35:53;;;;;;;16.35;7.93;;;7.50;99.90;;;;;;5062040;28;20443;-53